Time;durP1;ratioP1;P1;durP2;ratioP2;P2;SDS_P1;SDS_P2;PMS_P1;PMS_P2;Temp;Humidity;BMP_temperature;BMP_pressure;BME280_temperature;BME280_humidity;BME280_pressure;Samples;Min_cycle;Max_cycle;Signal;HPM_P1;HPM_P2
2023/03/21 00:00:25;;;;;;;54.83;24.13;;;9.50;99.90;;;;;;4937027;29;20043;-47
2023/03/21 00:02:51;;;;;;;51.35;23.45;;;9.20;99.90;;;;;;4936720;29;20567;-49
2023/03/21 00:05:19;;;;;;;52.65;23.90;;;9.20;99.90;;;;;;4919425;29;20123;-47
2023/03/21 00:07:45;;;;;;;51.08;23.65;;;9.40;99.90;;;;;;4936409;29;20510;-47
2023/03/21 00:10:11;;;;;;;53.60;26.40;;;9.10;99.90;;;;;;4935282;29;20459;-45
2023/03/21 00:12:36;;;;;;;60.60;26.67;;;9.60;99.90;;;;;;4918879;29;20040;-46
2023/03/21 00:15:07;;;;;;;56.85;25.70;;;9.10;99.90;;;;;;4935455;29;20036;-45
2023/03/21 00:17:35;;;;;;;56.47;26.02;;;9.40;99.90;;;;;;4935000;29;20043;-45
2023/03/21 00:20:05;;;;;;;51.13;25.25;;;9.40;99.90;;;;;;4936386;29;20043;-50
2023/03/21 00:22:33;;;;;;;47.47;24.20;;;9.20;99.90;;;;;;4936285;29;20082;-47
2023/03/21 00:24:59;;;;;;;56.33;25.52;;;9.50;99.90;;;;;;4936239;29;20043;-47
2023/03/21 00:27:26;;;;;;;56.13;25.05;;;9.50;99.90;;;;;;4934962;29;20049;-46
2023/03/21 00:29:52;;;;;;;57.05;26.13;;;9.50;99.90;;;;;;4935009;29;20148;-45
2023/03/21 00:32:20;;;;;;;64.65;25.98;;;9.60;99.90;;;;;;4919113;29;20384;-48
2023/03/21 00:34:46;;;;;;;71.03;27.08;;;9.50;99.90;;;;;;4936026;29;20046;-47
2023/03/21 00:37:15;;;;;;;66.32;26.08;;;9.30;99.90;;;;;;4936008;29;20103;-47
2023/03/21 00:39:42;;;;;;;60.22;25.42;;;9.10;99.90;;;;;;4935900;29;20036;-48
2023/03/21 00:42:08;;;;;;;65.88;26.80;;;9.30;99.90;;;;;;4934642;29;20464;-50
2023/03/21 00:44:35;;;;;;;66.65;27.30;;;9.60;99.90;;;;;;4908348;29;20086;-48
2023/03/21 00:47:05;;;;;;;71.35;27.85;;;9.20;99.90;;;;;;4935596;29;20439;-47
2023/03/21 00:49:34;;;;;;;80.10;30.60;;;9.30;99.90;;;;;;4935841;29;20039;-48
2023/03/21 00:52:00;;;;;;;66.03;28.17;;;9.60;99.90;;;;;;4918173;29;20043;-46
2023/03/21 00:54:26;;;;;;;70.15;28.38;;;9.20;99.90;;;;;;4918396;29;20043;-48
2023/03/21 00:56:52;;;;;;;72.43;28.70;;;9.40;99.90;;;;;;4935844;29;20082;-45
2023/03/21 00:59:18;;;;;;;61.38;26.77;;;9.50;99.90;;;;;;4935523;29;20131;-46
2023/03/21 01:01:45;;;;;;;62.47;26.08;;;9.40;99.90;;;;;;4935787;29;20039;-46
2023/03/21 01:04:13;;;;;;;55.00;25.08;;;9.40;99.90;;;;;;4935731;29;20039;-47
2023/03/21 01:06:40;;;;;;;70.88;28.08;;;9.20;99.90;;;;;;4935357;29;20495;-49
2023/03/21 01:09:11;;;;;;;58.85;26.38;;;9.70;99.90;;;;;;4935330;29;20435;-47
2023/03/21 01:11:36;;;;;;;64.95;27.83;;;9.10;99.90;;;;;;4935268;29;20035;-45
2023/03/21 01:14:02;;;;;;;70.90;27.85;;;9.60;99.90;;;;;;4925355;29;20042;-46
2023/03/21 01:16:28;;;;;;;67.05;28.58;;;9.20;99.90;;;;;;4935103;29;20039;-45
2023/03/21 01:18:55;;;;;;;69.85;28.40;;;9.60;99.90;;;;;;4935188;29;20102;-50
2023/03/21 01:21:20;;;;;;;71.95;29.88;;;9.40;99.90;;;;;;4931417;29;20119;-47
2023/03/21 01:23:46;;;;;;;77.03;29.55;;;9.30;99.90;;;;;;4935545;29;20118;-48
2023/03/21 01:26:14;;;;;;;67.80;28.67;;;9.50;99.90;;;;;;4935312;29;20040;-47
2023/03/21 01:28:41;;;;;;;71.30;30.23;;;9.60;99.90;;;;;;4935060;29;20087;-47
2023/03/21 01:31:08;;;;;;;83.40;32.10;;;9.60;99.90;;;;;;4935143;29;20102;-49
2023/03/21 01:33:34;;;;;;;60.90;28.35;;;9.60;99.90;;;;;;4933874;29;20486;-47
2023/03/21 01:36:00;;;;;;;67.20;29.92;;;9.30;99.90;;;;;;4934901;29;20099;-48
2023/03/21 01:38:26;;;;;;;76.05;30.15;;;9.60;99.90;;;;;;4935144;29;20045;-47
2023/03/21 01:40:52;;;;;;;81.78;31.33;;;9.10;99.90;;;;;;4934873;29;20035;-48
2023/03/21 01:43:34;;;;;;;86.35;31.80;;;9.40;99.90;;;;;;4934767;29;20044;-49
2023/03/21 01:46:10;;;;;;;81.60;31.38;;;9.20;99.90;;;;;;4934109;29;20486;-49
2023/03/21 01:48:39;;;;;;;90.85;30.63;;;9.30;99.90;;;;;;4934405;29;20130;-50
2023/03/21 01:51:05;;;;;;;79.43;29.25;;;9.50;99.90;;;;;;4934814;29;20158;-50
2023/03/21 01:53:34;;;;;;;80.18;28.60;;;9.30;99.90;;;;;;4934583;29;20043;-46
2023/03/21 01:56:05;;;;;;;74.43;27.67;;;9.20;99.90;;;;;;4934441;29;20036;-46
2023/03/21 01:58:32;;;;;;;82.60;29.23;;;9.60;99.90;;;;;;4934762;29;20044;-46
2023/03/21 02:00:59;;;;;;;70.32;26.67;;;9.70;99.90;;;;;;4934403;29;20051;-49
2023/03/21 02:03:28;;;;;;;64.90;25.63;;;9.50;99.90;;;;;;4928107;29;20068;-49
2023/03/21 02:06:05;;;;;;;69.53;26.67;;;9.20;99.90;;;;;;4934693;29;20075;-45
2023/03/21 02:08:31;;;;;;;58.67;24.20;;;9.40;99.90;;;;;;4934373;29;20075;-45
2023/03/21 02:10:58;;;;;;;62.65;23.65;;;9.60;99.90;;;;;;4934231;29;20067;-46
2023/03/21 02:13:24;;;;;;;54.70;22.15;;;9.40;99.90;;;;;;4933885;29;20406;-46
2023/03/21 02:16:05;;;;;;;47.58;19.38;;;9.30;99.90;;;;;;4933058;29;20131;-47
2023/03/21 02:18:52;;;;;;;42.13;20.33;;;9.20;99.90;;;;;;4933532;29;20040;-49
2023/03/21 02:21:49;;;;;;;57.58;21.38;;;9.30;99.90;;;;;;4934280;29;20035;-45
2023/03/21 02:24:52;;;;;;;48.60;19.27;;;9.40;99.90;;;;;;4934495;29;20535;-47
2023/03/21 02:27:22;;;;;;;47.88;19.92;;;9.20;99.90;;;;;;4933879;29;20058;-48
2023/03/21 02:29:57;;;;;;;44.40;18.33;;;9.50;99.90;;;;;;4934357;29;20083;-50
2023/03/21 02:32:47;;;;;;;36.40;17.52;;;9.60;99.90;;;;;;4933972;29;20042;-51
2023/03/21 02:35:34;;;;;;;42.63;18.25;;;9.60;99.90;;;;;;4933402;29;20043;-47
2023/03/21 02:38:09;;;;;;;45.88;20.02;;;9.20;99.90;;;;;;4934321;29;20044;-46
2023/03/21 02:41:11;;;;;;;42.03;19.15;;;9.50;99.90;;;;;;4933807;29;20052;-45
2023/03/21 02:44:03;;;;;;;35.53;17.45;;;9.40;99.90;;;;;;4912352;29;20059;-47
2023/03/21 02:46:33;;;;;;;46.53;18.98;;;9.20;99.90;;;;;;4933777;29;20050;-50
2023/03/21 02:49:06;;;;;;;40.15;18.85;;;9.60;99.90;;;;;;4932460;29;20055;-46
2023/03/21 02:51:34;;;;;;;47.95;20.08;;;9.10;99.90;;;;;;4933886;29;20051;-48
2023/03/21 02:54:06;;;;;;;47.67;19.27;;;9.30;99.90;;;;;;4933905;29;20036;-44
2023/03/21 02:56:33;;;;;;;44.42;20.08;;;9.10;99.90;;;;;;4916554;29;20059;-45
2023/03/21 02:58:59;;;;;;;47.22;20.05;;;9.60;99.90;;;;;;4933657;29;20050;-48
2023/03/21 03:01:25;;;;;;;44.55;19.27;;;9.10;99.90;;;;;;4933616;29;20487;-47
2023/03/21 03:03:51;;;;;;;46.88;20.13;;;9.30;99.90;;;;;;4932667;29;20050;-48
2023/03/21 03:07:02;;;;;;;41.20;18.77;;;9.10;99.90;;;;;;4933127;29;20075;-48
2023/03/21 03:09:47;;;;;;;43.13;19.60;;;9.20;99.90;;;;;;4893214;29;20053;-46
2023/03/21 03:12:21;;;;;;;47.20;20.35;;;9.60;99.90;;;;;;4932494;29;20119;-48
2023/03/21 03:15:17;;;;;;;44.85;20.33;;;9.50;99.90;;;;;;4932989;29;20074;-48
2023/03/21 03:18:02;;;;;;;45.60;20.15;;;9.40;99.90;;;;;;4933336;29;20044;-46
2023/03/21 03:20:55;;;;;;;51.53;22.65;;;9.20;99.90;;;;;;4916414;29;20056;-48
2023/03/21 03:23:34;;;;;;;56.25;22.88;;;9.30;99.90;;;;;;4916553;29;20510;-45
2023/03/21 03:26:12;;;;;;;43.97;20.67;;;9.10;99.90;;;;;;4933168;29;20110;-47
2023/03/21 03:28:42;;;;;;;45.55;22.13;;;9.10;99.90;;;;;;4932298;29;20048;-45
2023/03/21 03:31:12;;;;;;;48.88;22.50;;;9.00;99.90;;;;;;4932953;29;20050;-46
2023/03/21 03:33:42;;;;;;;47.40;22.17;;;9.30;99.90;;;;;;4933239;29;20056;-47
2023/03/21 03:36:16;;;;;;;48.55;22.45;;;9.60;99.90;;;;;;4931328;29;20090;-46
2023/03/21 03:38:43;;;;;;;47.67;22.65;;;9.10;99.90;;;;;;4932093;29;20131;-46
2023/03/21 03:41:17;;;;;;;50.78;22.83;;;9.50;99.90;;;;;;4933351;29;20048;-47
2023/03/21 03:43:52;;;;;;;46.88;23.50;;;9.20;99.90;;;;;;4930605;29;20127;-46
2023/03/21 03:46:51;;;;;;;43.05;22.02;;;9.40;99.90;;;;;;4933175;29;20076;-45
2023/03/21 03:49:22;;;;;;;43.83;23.02;;;9.20;99.90;;;;;;4932996;29;20052;-49
2023/03/21 03:51:51;;;;;;;47.63;23.50;;;9.30;99.90;;;;;;4933311;29;20515;-49
2023/03/21 03:54:29;;;;;;;48.15;24.30;;;9.40;99.90;;;;;;4933399;29;20043;-48
2023/03/21 03:56:55;;;;;;;45.30;22.80;;;9.30;99.90;;;;;;4933151;29;20039;-46
2023/03/21 03:59:20;;;;;;;44.72;23.98;;;9.50;99.90;;;;;;4931918;29;20054;-47
2023/03/21 04:01:46;;;;;;;46.90;23.67;;;9.10;99.90;;;;;;4915948;29;20051;-47
2023/03/21 04:04:15;;;;;;;41.60;22.20;;;9.10;99.90;;;;;;4932935;29;20134;-47
2023/03/21 04:06:50;;;;;;;48.85;24.42;;;9.20;99.90;;;;;;4932996;29;20495;-49
2023/03/21 04:09:17;;;;;;;51.00;24.35;;;9.30;99.90;;;;;;4915958;29;20111;-45
2023/03/21 04:11:43;;;;;;;41.88;23.77;;;9.60;99.90;;;;;;4931311;29;20032;-47
2023/03/21 04:14:08;;;;;;;44.30;24.02;;;9.60;99.90;;;;;;4932114;29;20099;-50
2023/03/21 04:16:34;;;;;;;48.88;24.52;;;9.30;99.90;;;;;;4932725;29;20083;-47
2023/03/21 04:19:00;;;;;;;46.58;26.20;;;9.70;99.90;;;;;;4925414;29;20047;-48
2023/03/21 04:21:27;;;;;;;45.13;25.23;;;9.50;99.90;;;;;;4933143;29;20487;-48
2023/03/21 04:23:56;;;;;;;50.85;26.92;;;9.40;99.90;;;;;;4932906;29;20054;-48
2023/03/21 04:26:22;;;;;;;52.83;26.92;;;9.50;99.90;;;;;;4934326;29;20090;-50
2023/03/21 04:28:49;;;;;;;49.67;26.80;;;9.10;99.90;;;;;;4936155;29;20051;-47
2023/03/21 04:31:16;;;;;;;57.10;28.58;;;9.50;99.90;;;;;;4935929;29;20036;-47
2023/03/21 04:33:46;;;;;;;58.47;29.80;;;9.30;99.90;;;;;;4918337;29;20039;-48
2023/03/21 04:36:23;;;;;;;52.88;28.38;;;9.20;99.90;;;;;;4936177;29;20035;-48
2023/03/21 04:38:49;;;;;;;53.80;28.90;;;9.10;99.90;;;;;;4935976;29;20047;-46
2023/03/21 04:41:15;;;;;;;59.70;30.33;;;9.10;99.90;;;;;;4935882;29;20039;-47
2023/03/21 04:43:41;;;;;;;58.25;29.75;;;9.20;99.90;;;;;;4928609;29;20046;-50
2023/03/21 04:46:07;;;;;;;59.65;29.23;;;9.60;99.90;;;;;;4935732;29;20487;-46
2023/03/21 04:48:32;;;;;;;57.65;29.65;;;9.70;99.90;;;;;;4935592;29;20048;-46
2023/03/21 04:50:58;;;;;;;61.97;31.52;;;9.20;99.90;;;;;;4935771;29;20043;-46
2023/03/21 04:53:24;;;;;;;62.28;31.67;;;9.60;99.90;;;;;;4935534;29;20106;-48
2023/03/21 04:55:50;;;;;;;64.47;31.33;;;9.50;99.90;;;;;;4935885;29;20039;-48
2023/03/21 04:58:16;;;;;;;62.88;31.45;;;9.10;99.90;;;;;;4935489;29;20106;-49
2023/03/21 05:00:42;;;;;;;64.53;31.67;;;9.50;99.90;;;;;;4935802;29;20119;-47
2023/03/21 05:03:08;;;;;;;62.58;30.58;;;9.40;99.90;;;;;;4934281;29;20110;-49
2023/03/21 05:05:37;;;;;;;65.20;31.60;;;9.50;99.90;;;;;;4934683;29;20119;-48
2023/03/21 05:08:04;;;;;;;61.47;31.55;;;9.10;99.90;;;;;;4935517;29;20044;-47
2023/03/21 05:10:29;;;;;;;71.30;34.08;;;9.50;99.90;;;;;;4935688;29;20039;-50
2023/03/21 05:12:55;;;;;;;73.72;34.38;;;9.50;99.90;;;;;;4935031;29;20043;-50
2023/03/21 05:15:21;;;;;;;69.63;32.03;;;9.50;99.90;;;;;;4935553;29;20058;-48
2023/03/21 05:17:47;;;;;;;78.05;34.78;;;9.50;99.90;;;;;;4935490;29;20414;-49
2023/03/21 05:20:16;;;;;;;58.40;31.40;;;9.50;99.90;;;;;;4935307;29;20062;-47
2023/03/21 05:22:44;;;;;;;76.65;34.67;;;9.20;99.90;;;;;;4934183;29;20043;-45
2023/03/21 05:25:12;;;;;;;68.22;31.40;;;9.50;99.90;;;;;;4935233;29;20043;-45
2023/03/21 05:27:43;;;;;;;73.03;32.75;;;9.50;99.90;;;;;;4934973;29;20078;-45
2023/03/21 05:30:15;;;;;;;64.78;33.17;;;9.50;99.90;;;;;;4915840;29;20075;-50
2023/03/21 05:32:41;;;;;;;62.80;32.72;;;9.00;99.90;;;;;;4934383;29;20055;-46
2023/03/21 05:35:08;;;;;;;59.83;30.95;;;9.30;99.90;;;;;;4935202;29;20039;-48
2023/03/21 05:37:34;;;;;;;70.65;32.70;;;9.40;99.90;;;;;;4934906;29;20051;-47
2023/03/21 05:39:59;;;;;;;55.35;30.30;;;9.20;99.90;;;;;;4934936;29;20123;-47
2023/03/21 05:42:25;;;;;;;57.05;29.88;;;9.00;99.90;;;;;;4934696;29;20051;-44
2023/03/21 05:44:51;;;;;;;60.45;28.90;;;9.00;99.90;;;;;;4934727;29;20468;-45
2023/03/21 05:47:17;;;;;;;64.32;32.90;;;9.10;99.90;;;;;;4917280;29;20043;-46
2023/03/21 05:49:44;;;;;;;54.78;27.98;;;9.50;99.90;;;;;;4934919;29;20118;-46
2023/03/21 05:52:10;;;;;;;61.78;30.05;;;9.50;99.90;;;;;;4917640;29;20128;-46
2023/03/21 05:54:36;;;;;;;56.65;27.92;;;9.00;99.90;;;;;;4934813;29;20471;-47
2023/03/21 05:57:03;;;;;;;48.67;26.55;;;9.00;99.90;;;;;;4934985;29;20530;-48
2023/03/21 05:59:28;;;;;;;44.05;24.15;;;9.10;99.90;;;;;;4901877;29;20369;-48
2023/03/21 06:01:54;;;;;;;52.75;24.77;;;9.10;99.90;;;;;;4934764;29;20050;-48
2023/03/21 06:04:20;;;;;;;41.72;23.38;;;9.30;99.90;;;;;;4917799;29;20083;-48
2023/03/21 06:06:45;;;;;;;40.08;21.92;;;9.20;99.90;;;;;;4930109;29;20075;-48
2023/03/21 06:09:12;;;;;;;39.75;20.67;;;9.50;99.90;;;;;;4934666;29;20039;-51
2023/03/21 06:11:41;;;;;;;37.25;20.08;;;9.40;99.90;;;;;;4934382;29;20103;-47
2023/03/21 06:14:07;;;;;;;40.30;20.48;;;9.20;99.90;;;;;;4921850;29;20035;-49
2023/03/21 06:16:32;;;;;;;36.65;20.35;;;9.20;99.90;;;;;;4933033;29;20095;-47
2023/03/21 06:18:58;;;;;;;33.83;19.55;;;9.50;99.90;;;;;;4933451;29;20055;-47
2023/03/21 06:21:24;;;;;;;35.75;19.30;;;9.00;99.90;;;;;;4934032;29;20046;-47
2023/03/21 06:23:52;;;;;;;37.88;20.27;;;9.00;99.90;;;;;;4932885;29;20044;-49
2023/03/21 06:26:21;;;;;;;37.95;20.17;;;9.30;99.90;;;;;;4933876;29;20039;-45
2023/03/21 06:28:48;;;;;;;41.28;22.70;;;9.40;99.90;;;;;;4932765;29;20047;-46
2023/03/21 06:31:14;;;;;;;51.50;25.90;;;9.20;99.90;;;;;;4934369;29;20106;-47
2023/03/21 06:33:40;;;;;;;46.10;25.58;;;9.40;99.90;;;;;;4933940;29;20479;-44
2023/03/21 06:36:06;;;;;;;47.47;25.73;;;9.00;99.90;;;;;;4932802;29;20082;-47
2023/03/21 06:38:31;;;;;;;48.45;26.52;;;9.00;99.90;;;;;;4933428;29;20456;-45
2023/03/21 06:40:57;;;;;;;45.38;25.52;;;9.20;99.90;;;;;;4932126;29;20035;-51
2023/03/21 06:43:23;;;;;;;52.88;26.90;;;9.00;99.90;;;;;;4933145;29;20071;-48
2023/03/21 06:45:49;;;;;;;51.97;26.52;;;9.30;99.90;;;;;;4933605;29;20048;-47
2023/03/21 06:48:15;;;;;;;45.33;25.80;;;9.00;99.90;;;;;;4931878;29;20051;-45
2023/03/21 06:50:41;;;;;;;50.15;26.73;;;9.00;99.90;;;;;;4929971;29;20253;-47
2023/03/21 06:53:07;;;;;;;45.10;26.33;;;9.30;99.90;;;;;;4915162;29;20110;-46
2023/03/21 06:55:32;;;;;;;51.92;27.20;;;9.00;99.90;;;;;;4932816;29;20150;-49
2023/03/21 06:57:58;;;;;;;53.95;29.95;;;9.40;99.90;;;;;;4933408;29;20048;-49
2023/03/21 07:00:24;;;;;;;54.00;30.25;;;9.30;99.90;;;;;;4930774;29;20043;-47
2023/03/21 07:02:50;;;;;;;53.08;28.58;;;9.30;99.90;;;;;;4924207;29;20055;-47
2023/03/21 07:05:16;;;;;;;51.70;28.52;;;9.20;99.90;;;;;;4925568;29;20035;-46
2023/03/21 07:07:42;;;;;;;62.63;31.65;;;9.10;99.90;;;;;;4923592;29;20654;-46
2023/03/21 07:10:09;;;;;;;60.03;32.13;;;9.00;99.90;;;;;;4923645;29;20031;-47
2023/03/21 07:12:35;;;;;;;60.55;30.88;;;9.00;99.90;;;;;;4923677;29;20043;-48
2023/03/21 07:15:01;;;;;;;62.30;30.05;;;9.50;99.90;;;;;;4924032;29;20043;-49
2023/03/21 07:17:27;;;;;;;56.08;30.65;;;9.00;99.90;;;;;;4922146;29;20044;-46
2023/03/21 07:19:53;;;;;;;63.40;32.38;;;9.40;99.90;;;;;;4924042;29;20035;-46
2023/03/21 07:22:19;;;;;;;60.72;31.17;;;9.40;99.90;;;;;;4923947;29;20476;-46
2023/03/21 07:24:47;;;;;;;61.85;30.95;;;9.50;99.90;;;;;;4922381;29;20040;-46
2023/03/21 07:27:15;;;;;;;52.90;28.52;;;9.40;99.90;;;;;;4905694;29;20062;-45
2023/03/21 07:29:40;;;;;;;57.55;29.60;;;9.10;99.90;;;;;;4922483;29;20158;-45
2023/03/21 07:32:06;;;;;;;54.17;28.75;;;9.10;99.90;;;;;;4925118;29;20123;-46
2023/03/21 07:34:32;;;;;;;50.13;27.90;;;9.40;99.90;;;;;;4923921;29;20039;-50
2023/03/21 07:36:59;;;;;;;50.20;27.77;;;9.00;99.90;;;;;;4925040;29;20495;-45
2023/03/21 07:39:26;;;;;;;50.88;27.70;;;9.50;99.90;;;;;;4923916;29;20054;-47
2023/03/21 07:41:54;;;;;;;61.83;29.80;;;9.40;99.90;;;;;;4923373;29;20044;-46
2023/03/21 07:44:23;;;;;;;48.83;27.30;;;9.40;99.90;;;;;;4923859;29;20066;-45
2023/03/21 07:46:49;;;;;;;49.22;26.58;;;9.50;99.90;;;;;;4924844;29;20031;-45
2023/03/21 07:49:15;;;;;;;52.67;27.88;;;9.50;99.90;;;;;;4907559;29;20059;-49
2023/03/21 07:51:41;;;;;;;52.03;27.40;;;9.00;99.90;;;;;;4925984;29;20455;-46
2023/03/21 07:54:07;;;;;;;48.40;26.02;;;9.40;99.90;;;;;;4907768;29;20064;-46
2023/03/21 07:56:32;;;;;;;48.33;25.00;;;9.30;99.90;;;;;;4923465;29;20039;-48
2023/03/21 07:58:58;;;;;;;47.70;25.30;;;9.10;99.90;;;;;;4926400;29;20160;-45
2023/03/21 08:01:25;;;;;;;43.08;23.33;;;9.40;99.90;;;;;;4925362;29;20527;-47
2023/03/21 08:03:52;;;;;;;50.67;26.13;;;9.30;99.90;;;;;;4926252;29;20059;-47
2023/03/21 08:06:19;;;;;;;47.03;24.92;;;9.60;99.90;;;;;;4927693;29;20048;-48
2023/03/21 08:08:45;;;;;;;47.10;23.75;;;9.30;99.90;;;;;;4927919;29;20047;-48
2023/03/21 08:11:11;;;;;;;42.33;22.98;;;9.60;99.90;;;;;;4928591;29;20491;-50
2023/03/21 08:13:37;;;;;;;48.25;24.95;;;9.30;99.90;;;;;;4910878;29;20035;-46
2023/03/21 08:16:03;;;;;;;43.38;21.90;;;9.30;99.90;;;;;;4927782;29;20510;-50
2023/03/21 08:18:29;;;;;;;47.35;23.75;;;9.60;99.90;;;;;;4929205;29;20039;-50
2023/03/21 08:20:56;;;;;;;44.10;22.25;;;9.20;99.90;;;;;;4928081;29;20042;-49
2023/03/21 08:23:23;;;;;;;49.70;23.52;;;9.70;99.90;;;;;;4908215;29;20078;-47
2023/03/21 08:25:55;;;;;;;44.83;22.73;;;9.30;99.90;;;;;;4928359;29;20071;-47
2023/03/21 08:28:22;;;;;;;41.75;22.60;;;9.60;99.90;;;;;;4926642;29;20158;-47
2023/03/21 08:30:47;;;;;;;51.28;24.08;;;9.20;99.90;;;;;;4927064;29;20139;-47
2023/03/21 08:33:13;;;;;;;49.95;26.30;;;9.70;99.90;;;;;;4926564;29;20551;-46
2023/03/21 08:35:39;;;;;;;40.03;21.90;;;9.50;99.90;;;;;;4909597;29;20036;-50
2023/03/21 08:38:06;;;;;;;49.47;25.38;;;9.30;99.90;;;;;;4927490;29;20036;-47
2023/03/21 08:40:32;;;;;;;49.17;24.13;;;9.30;99.90;;;;;;4908818;29;20036;-47
2023/03/21 08:42:58;;;;;;;42.08;23.05;;;9.70;99.90;;;;;;4925926;29;20119;-49
2023/03/21 08:45:25;;;;;;;41.85;23.13;;;9.60;99.90;;;;;;4925374;29;20032;-48
2023/03/21 08:47:52;;;;;;;38.50;23.48;;;9.30;99.90;;;;;;4927402;29;20059;-47
2023/03/21 08:50:21;;;;;;;41.88;23.08;;;9.60;99.90;;;;;;4926803;29;20577;-48
2023/03/21 08:52:48;;;;;;;44.53;23.10;;;9.60;99.90;;;;;;4927208;29;20066;-46
2023/03/21 08:55:15;;;;;;;42.22;23.38;;;9.40;99.90;;;;;;4926549;29;20061;-45
2023/03/21 08:57:41;;;;;;;48.00;22.65;;;9.40;99.90;;;;;;4926231;29;20091;-46
2023/03/21 09:00:12;;;;;;;47.15;23.20;;;9.30;99.90;;;;;;4927122;29;20094;-46
2023/03/21 09:02:42;;;;;;;44.22;23.70;;;9.70;99.90;;;;;;4909129;29;20492;-49
2023/03/21 09:05:10;;;;;;;43.63;22.77;;;9.30;99.90;;;;;;4926543;29;20115;-49
2023/03/21 09:07:38;;;;;;;40.85;21.77;;;9.50;99.90;;;;;;4925248;29;20042;-45
2023/03/21 09:10:07;;;;;;;43.22;23.25;;;9.70;99.90;;;;;;4925373;29;20106;-47
2023/03/21 09:12:33;;;;;;;43.33;23.33;;;9.40;99.90;;;;;;4926637;29;20425;-46
2023/03/21 09:15:01;;;;;;;42.70;22.88;;;9.70;99.90;;;;;;4923270;29;20826;-46
2023/03/21 09:17:28;;;;;;;41.65;23.50;;;9.40;99.90;;;;;;4926017;29;20461;-47
2023/03/21 09:19:55;;;;;;;40.58;22.67;;;9.40;99.90;;;;;;4926824;29;20124;-45
2023/03/21 09:22:22;;;;;;;40.38;22.92;;;9.70;99.90;;;;;;4907903;29;20127;-48
2023/03/21 09:24:49;;;;;;;49.13;24.00;;;9.50;99.90;;;;;;4927369;29;20043;-48
2023/03/21 09:27:21;;;;;;;40.22;21.45;;;9.60;99.90;;;;;;4925386;29;20577;-47
2023/03/21 09:29:50;;;;;;;42.10;21.33;;;9.50;99.90;;;;;;4927384;29;20039;-49
2023/03/21 09:32:19;;;;;;;39.28;20.83;;;9.80;99.90;;;;;;4928198;29;20398;-47
2023/03/21 09:34:45;;;;;;;44.13;21.25;;;9.90;99.90;;;;;;4928050;29;20036;-47
2023/03/21 09:37:12;;;;;;;32.22;19.20;;;9.90;99.90;;;;;;4926631;29;20489;-47
2023/03/21 09:39:40;;;;;;;33.50;19.48;;;9.80;99.90;;;;;;4928779;29;20044;-45
2023/03/21 09:42:12;;;;;;;39.13;20.65;;;9.90;99.90;;;;;;4929220;29;20123;-46
2023/03/21 09:44:57;;;;;;;33.35;18.83;;;9.80;99.90;;;;;;4927674;29;20055;-46
2023/03/21 09:47:27;;;;;;;33.30;19.13;;;9.90;99.90;;;;;;4926346;29;20131;-47
2023/03/21 09:50:04;;;;;;;37.53;19.10;;;9.90;99.90;;;;;;4926511;29;20120;-48
2023/03/21 09:52:42;;;;;;;33.78;17.58;;;10.20;99.90;;;;;;4925542;29;20047;-46
2023/03/21 09:55:29;;;;;;;33.50;17.70;;;10.10;99.90;;;;;;4924928;29;20086;-49
2023/03/21 09:58:04;;;;;;;33.30;17.83;;;9.90;99.90;;;;;;4924951;29;20391;-47
2023/03/21 10:00:36;;;;;;;31.73;17.77;;;10.30;99.90;;;;;;4924676;29;20032;-46
2023/03/21 10:03:06;;;;;;;30.55;16.95;;;10.30;99.90;;;;;;4923355;29;20055;-46
2023/03/21 10:05:34;;;;;;;32.92;17.45;;;10.20;99.90;;;;;;4907432;29;20047;-47
2023/03/21 10:08:12;;;;;;;32.75;17.95;;;10.00;99.90;;;;;;4926674;29;20039;-46
2023/03/21 10:10:48;;;;;;;30.92;18.05;;;10.20;99.90;;;;;;4923317;29;20071;-48
2023/03/21 10:13:24;;;;;;;31.80;16.23;;;10.40;99.90;;;;;;4924753;29;20044;-48
2023/03/21 10:15:50;;;;;;;28.92;16.92;;;10.30;99.90;;;;;;4924188;29;20190;-48
2023/03/21 10:18:25;;;;;;;28.95;15.90;;;10.30;99.90;;;;;;4924442;29;20400;-48
2023/03/21 10:20:51;;;;;;;29.38;17.20;;;10.30;99.90;;;;;;4925547;29;20047;-46
2023/03/21 10:23:19;;;;;;;36.22;17.52;;;10.20;99.90;;;;;;4923915;29;20416;-49
2023/03/21 10:25:50;;;;;;;32.90;17.92;;;10.20;99.90;;;;;;4924576;29;20191;-45
2023/03/21 10:28:20;;;;;;;34.90;17.58;;;10.60;99.90;;;;;;4906922;29;20127;-51
2023/03/21 10:30:52;;;;;;;30.67;18.00;;;10.40;99.90;;;;;;4924671;29;20047;-50
2023/03/21 10:33:38;;;;;;;31.73;17.25;;;10.50;99.90;;;;;;4925288;29;20044;-49
2023/03/21 10:36:21;;;;;;;33.05;18.40;;;10.50;99.90;;;;;;4925218;29;20050;-47
2023/03/21 10:38:51;;;;;;;29.10;17.17;;;10.90;99.90;;;;;;4924909;29;20131;-45
2023/03/21 10:41:19;;;;;;;25.10;16.50;;;10.90;99.90;;;;;;4909110;29;23433;-48
2023/03/21 10:43:49;;;;;;;27.15;16.48;;;10.70;99.90;;;;;;4925587;29;20123;-50
2023/03/21 10:46:19;;;;;;;25.27;15.30;;;10.90;99.90;;;;;;4924469;29;20063;-48
2023/03/21 10:48:51;;;;;;;24.02;14.60;;;10.80;99.90;;;;;;4924733;29;20130;-49
2023/03/21 10:51:29;;;;;;;23.60;15.07;;;10.90;99.90;;;;;;4924461;29;20404;-51
2023/03/21 10:54:03;;;;;;;22.88;13.50;;;10.90;99.90;;;;;;4908180;29;20036;-47
2023/03/21 10:56:35;;;;;;;25.88;14.25;;;10.90;99.90;;;;;;4924537;29;20040;-46
2023/03/21 10:59:02;;;;;;;22.67;11.88;;;11.00;99.90;;;;;;4926062;29;20035;-48
2023/03/21 11:01:36;;;;;;;21.27;11.27;;;11.20;99.90;;;;;;4924713;29;20079;-48
2023/03/21 11:04:14;;;;;;;19.25;11.18;;;11.10;99.90;;;;;;4924870;29;20051;-49
2023/03/21 11:06:44;;;;;;;18.88;10.52;;;11.00;99.90;;;;;;4924632;29;20051;-46
2023/03/21 11:09:18;;;;;;;18.33;10.93;;;11.20;99.90;;;;;;4924133;29;20036;-48
2023/03/21 11:12:22;;;;;;;;;;;11.30;99.90;;;;;;4926078;29;20044;-47
2023/03/21 11:14:49;;;;;;;14.50;8.93;;;11.10;99.90;;;;;;4889066;29;20360;-49
2023/03/21 11:17:15;;;;;;;17.58;8.77;;;11.20;99.90;;;;;;4883859;29;20059;-50
2023/03/21 11:19:56;;;;;;;15.30;9.10;;;11.20;99.90;;;;;;4902149;29;20512;-47
2023/03/21 11:22:24;;;;;;;15.25;8.70;;;11.20;99.90;;;;;;4923903;29;20047;-50
2023/03/21 11:24:58;;;;;;;14.40;9.10;;;11.20;99.90;;;;;;4905492;29;20052;-48
2023/03/21 11:27:28;;;;;;;;;;;11.20;99.90;;;;;;4924193;29;20046;-48
2023/03/21 11:29:56;;;;;;;15.38;8.40;;;11.20;99.90;;;;;;4906186;29;19922;-48
2023/03/21 11:32:25;;;;;;;17.13;9.38;;;11.20;99.90;;;;;;4924424;29;20468;-46
2023/03/21 11:34:57;;;;;;;16.45;9.25;;;11.30;99.90;;;;;;4924063;29;20040;-48
2023/03/21 11:37:31;;;;;;;15.25;8.57;;;11.40;99.90;;;;;;4927967;29;20058;-48
2023/03/21 11:40:19;;;;;;;20.63;8.75;;;11.40;99.90;;;;;;4928310;29;20047;-49
2023/03/21 11:42:54;;;;;;;14.63;8.52;;;11.50;99.90;;;;;;4925583;29;20036;-51
2023/03/21 11:45:21;;;;;;;17.48;8.25;;;11.60;99.90;;;;;;4926752;29;20043;-52
2023/03/21 11:47:49;;;;;;;15.48;8.48;;;11.60;99.90;;;;;;4928081;29;20074;-47
2023/03/21 11:50:31;;;;;;;15.77;7.95;;;11.80;99.90;;;;;;4928269;29;20032;-51
2023/03/21 11:53:06;;;;;;;14.85;8.60;;;11.90;99.90;;;;;;4925079;29;20046;-49
2023/03/21 11:55:38;;;;;;;14.57;8.00;;;12.00;99.90;;;;;;4927156;29;20039;-49
2023/03/21 11:58:42;;;;;;;15.18;8.30;;;12.10;99.90;;;;;;4927066;29;20047;-48
2023/03/21 12:01:26;;;;;;;13.18;8.45;;;12.00;99.90;;;;;;4929620;29;20461;-48
2023/03/21 12:04:03;;;;;;;17.45;8.02;;;12.00;99.90;;;;;;4933028;29;20040;-51
2023/03/21 12:06:44;;;;;;;17.73;8.68;;;11.90;99.90;;;;;;4934517;29;20496;-49
2023/03/21 12:09:19;;;;;;;14.00;7.55;;;11.80;99.90;;;;;;4935872;29;20036;-48
2023/03/21 12:11:53;;;;;;;14.90;8.15;;;11.80;99.90;;;;;;4934835;29;20052;-50
2023/03/21 12:14:19;;;;;;;15.80;8.43;;;11.70;99.90;;;;;;4935117;29;20040;-48
2023/03/21 12:17:05;;;;;;;12.85;7.72;;;11.70;99.90;;;;;;4936048;29;20427;-49
2023/03/21 12:19:49;;;;;;;12.20;7.43;;;11.70;99.90;;;;;;4919317;29;20036;-46
2023/03/21 12:22:24;;;;;;;15.70;8.15;;;11.70;99.90;;;;;;4935407;29;20459;-48
2023/03/21 12:24:54;;;;;;;14.15;7.75;;;11.70;99.90;;;;;;4935731;29;20556;-48
2023/03/21 12:28:04;;;;;;;19.90;9.05;;;11.80;99.90;;;;;;4934645;29;20102;-47
2023/03/21 12:30:36;;;;;;;16.13;8.10;;;11.80;99.90;;;;;;4930208;29;20083;-49
2023/03/21 12:33:19;;;;;;;13.90;8.13;;;11.80;99.90;;;;;;4935187;29;20043;-44
2023/03/21 12:36:18;;;;;;;14.00;7.45;;;11.90;99.90;;;;;;4935369;29;20053;-46
2023/03/21 12:39:05;;;;;;;15.65;7.75;;;12.00;99.90;;;;;;4928107;29;20039;-46
2023/03/21 12:41:36;;;;;;;14.18;8.10;;;12.20;99.90;;;;;;4934474;29;20035;-48
2023/03/21 12:44:19;;;;;;;13.20;7.15;;;12.30;99.90;;;;;;4934269;29;20040;-48
2023/03/21 12:46:58;;;;;;;16.75;8.02;;;12.40;99.90;;;;;;4934653;29;20056;-46
2023/03/21 12:49:27;;;;;;;13.45;7.68;;;12.50;99.90;;;;;;4933356;29;20048;-48
2023/03/21 12:52:15;;;;;;;16.55;7.63;;;12.50;99.90;;;;;;4934467;29;20067;-48